Springfield, MO (65801)

7:45 PM CDT on April 30, 2017 (GMT -0500)
Triple S Highland Gardens | | Change Station

Elev 1280 ft 37.20 °N, 93.34 °W | Updated 3 seconds ago

Rain
Rain
50.0 °F
Feels Like 48 °F
N
5.1
Wind Variable Wind from SSW
Gusts 7.4 mph

Today
High -- | Low -- °F
--% Chance of Precip.
Yesterday
High -- | Low -- °F
Precip. -- in
Pressure 29.54 in
Visibility 10.0 miles
Clouds Mostly Cloudy 6000 ft
Overcast 8000 ft
Windchill 48 °F
Dew Point 36 °F
Humidity 59%
Rainfall 0.69 in
Snow Depth Not available.
6:19 AM 8:02 PM
Waxing Crescent, 27% visible
METAR KSGF 302352Z 20018G29KT 10SM BKN060 OVC080 12/03 A2955 RMK AO2 PK WND 20031/2307 SLP001 T01220033 10194 20122 50010
Pressure 29.54 in
Visibility 10.0 miles
Clouds Mostly Cloudy 6000 ft
Overcast 8000 ft
Windchill 48 °F
Dew Point 36 °F
Humidity 59%
Rainfall 0.69 in
Snow Depth Not available.
6:19 AM 8:02 PM
Waxing Crescent, 27% visible
METAR KSGF 302352Z 20018G29KT 10SM BKN060 OVC080 12/03 A2955 RMK AO2 PK WND 20031/2307 SLP001 T01220033 10194 20122 50010

Get Severe Weather Alerts

Thanks for signing up!

Be on the lookout for a verification email in your inbox.

You'll start receiving the daily forecast at 8 AM.

×

10-Day Weather Forecast

Almanac

Astronomy

Apr. 30, 2017 Rise Set
Actual Time
Civil Twilight
Nautical Twilight
Astronomical Twilight
Moon
Length of Visible Light
Length of Day
Tomorrow will be .
, % of the Moon is Illuminated

Today's Extremes

State Highs State Lows

Community

WunderPhotos

WunderBlog® & News

Nearby

Air Quality

  Air Quality AQ Index Pollutant
Not available.

Snow Depth

Station Depth Elevation

Earthquake Activity

City Distance Mag. Time & Date
Minimum magnitude displayed is 2.5.

Coastal Water Temperatures

Place Temperature

Stations

Nearby Weather Stations

Station Location Temp. Windchill Dew Point Humidity Wind Precip. Elev Updated Type
                   

Watches & Warnings

There are currently no watches in effect.